createdAt,value
2023-12-11T00:01:24.809Z,91.37
2023-12-11T00:06:26.366Z,90.98
2023-12-11T00:11:27.886Z,91.19
2023-12-11T00:16:29.453Z,91.67
2023-12-11T00:21:31.077Z,91.19
2023-12-11T00:26:32.609Z,91.23
2023-12-11T00:31:34.135Z,90.65
2023-12-11T00:36:35.695Z,90.52
2023-12-11T00:41:37.232Z,89.42
2023-12-11T00:46:38.807Z,89.74
2023-12-11T00:51:40.330Z,89.96
2023-12-11T00:56:41.978Z,91.09
2023-12-11T01:01:43.636Z,92.41
2023-12-11T01:06:45.242Z,92.74
2023-12-11T01:11:46.780Z,92.64
2023-12-11T01:16:48.424Z,92.76
2023-12-11T01:21:50.172Z,92.63
2023-12-11T01:26:51.686Z,92.53
2023-12-11T01:31:53.199Z,92.42
2023-12-11T01:36:54.766Z,92.35
2023-12-11T01:41:56.303Z,92.83
2023-12-11T01:46:57.806Z,92.66
2023-12-11T01:52:00.098Z,92.08
2023-12-11T01:57:01.717Z,92.10
2023-12-11T02:02:04.391Z,92.47
2023-12-11T02:07:06.115Z,92.30
2023-12-11T02:12:07.676Z,91.62
2023-12-11T02:17:12.305Z,92.10
2023-12-11T02:22:14.289Z,91.98
2023-12-11T02:27:16.483Z,92.63
2023-12-11T02:32:18.092Z,92.29
2023-12-11T02:37:19.616Z,92.27
2023-12-11T02:42:21.127Z,91.92
2023-12-11T02:47:22.613Z,91.40
2023-12-11T02:52:24.501Z,91.35
2023-12-11T02:57:26.014Z,91.27
2023-12-11T03:02:27.644Z,91.74
2023-12-11T03:07:29.415Z,91.22
2023-12-11T03:12:31.135Z,91.64
2023-12-11T03:17:32.945Z,91.43
2023-12-11T03:22:34.564Z,91.79
2023-12-11T03:27:36.088Z,91.16
2023-12-11T03:32:38.060Z,91.40
2023-12-11T03:37:39.606Z,91.69
2023-12-11T03:42:41.150Z,91.47
2023-12-11T03:47:42.734Z,91.58
2023-12-11T03:52:44.313Z,91.67
2023-12-11T03:57:45.864Z,91.31
2023-12-11T04:02:47.504Z,91.36
2023-12-11T04:07:49.081Z,91.70
2023-12-11T04:12:50.613Z,91.97
2023-12-11T04:17:52.171Z,91.96
2023-12-11T04:22:53.857Z,92.19
2023-12-11T04:27:55.386Z,92.08
2023-12-11T04:32:56.982Z,91.18
2023-12-11T04:37:58.620Z,91.58
2023-12-11T04:43:00.214Z,92.01
2023-12-11T04:48:01.885Z,93.23
2023-12-11T04:53:03.479Z,92.82
2023-12-11T04:58:05.030Z,92.59
2023-12-11T05:03:06.666Z,92.45
2023-12-11T05:08:08.218Z,92.76
2023-12-11T05:13:09.826Z,92.17
2023-12-11T05:18:11.406Z,91.75
2023-12-11T05:23:12.963Z,91.22
2023-12-11T05:28:14.694Z,91.45
2023-12-11T05:33:16.463Z,91.15
2023-12-11T05:38:18.016Z,91.71
2023-12-11T05:43:19.691Z,90.62
2023-12-11T05:48:21.411Z,90.89
2023-12-11T05:53:23.044Z,90.70
2023-12-11T05:58:24.707Z,91.24
2023-12-11T06:03:26.393Z,90.88
2023-12-11T06:08:28.204Z,90.85
2023-12-11T06:13:29.700Z,91.07
2023-12-11T06:18:31.564Z,91.36
2023-12-11T06:23:33.151Z,90.83
2023-12-11T06:28:34.672Z,90.70
2023-12-11T06:33:36.507Z,90.94
2023-12-11T06:38:38.119Z,91.20
2023-12-11T06:43:39.670Z,91.46
2023-12-11T06:48:41.326Z,90.79
2023-12-11T06:53:43.882Z,91.33
2023-12-11T06:58:46.069Z,91.60
2023-12-11T07:03:49.466Z,91.76
2023-12-11T07:08:51.201Z,92.25
2023-12-11T07:13:54.732Z,92.49
2023-12-11T07:18:56.875Z,92.04
2023-12-11T07:23:58.520Z,92.12
2023-12-11T07:29:01.122Z,92.55
2023-12-11T07:34:03.404Z,92.22
2023-12-11T07:39:07.050Z,92.52
2023-12-11T07:44:08.906Z,92.09
2023-12-11T07:49:10.661Z,92.40
2023-12-11T07:54:13.322Z,91.99
2023-12-11T07:59:14.908Z,91.82
2023-12-11T08:04:16.563Z,91.40
2023-12-11T08:09:18.227Z,91.11
2023-12-11T08:14:19.760Z,91.12
2023-12-11T08:19:21.582Z,91.53
2023-12-11T08:24:23.134Z,91.58
2023-12-11T08:29:24.738Z,91.84
2023-12-11T08:34:26.334Z,92.21
2023-12-11T08:39:28.265Z,92.38
2023-12-11T08:44:29.971Z,92.11
2023-12-11T08:49:31.629Z,91.82
2023-12-11T08:54:33.252Z,92.14
2023-12-11T08:59:34.924Z,92.30
2023-12-11T09:04:36.678Z,92.91
2023-12-11T09:09:39.653Z,92.01
2023-12-11T09:14:42.225Z,91.79
2023-12-11T09:19:51.550Z,91.98
2023-12-11T09:24:56.683Z,92.49
2023-12-11T09:29:58.219Z,91.49
2023-12-11T09:35:00.191Z,92.00
2023-12-11T09:40:02.065Z,92.45
2023-12-11T09:45:04.532Z,93.09
2023-12-11T09:50:07.163Z,92.31
2023-12-11T09:55:09.492Z,92.14
2023-12-11T10:00:16.050Z,91.83
2023-12-11T10:05:26.621Z,90.22
2023-12-11T10:10:32.942Z,89.75
2023-12-11T10:15:36.536Z,91.33
2023-12-11T10:20:40.320Z,90.54
2023-12-11T10:25:44.117Z,90.44
2023-12-11T10:30:48.767Z,88.77
2023-12-11T10:35:51.442Z,88.52
2023-12-11T10:40:53.952Z,91.04
2023-12-11T10:45:55.644Z,89.53
2023-12-11T10:50:57.357Z,90.19
2023-12-11T10:56:01.976Z,90.85
2023-12-11T11:01:04.009Z,90.72
2023-12-11T11:06:07.613Z,90.45
2023-12-11T11:11:24.912Z,90.33
2023-12-11T11:16:55.852Z,90.87
2023-12-11T11:22:00.813Z,91.04
2023-12-11T11:27:03.186Z,90.69
2023-12-11T11:32:05.092Z,90.56
2023-12-11T11:37:13.584Z,89.51
2023-12-11T11:42:15.193Z,89.90
2023-12-11T11:47:19.767Z,89.76
2023-12-11T11:52:27.227Z,89.56
2023-12-11T11:57:31.839Z,89.53
2023-12-11T12:02:33.506Z,89.58
2023-12-11T12:07:38.757Z,89.65
2023-12-11T12:12:40.375Z,89.91
2023-12-11T12:17:43.708Z,89.92
2023-12-11T12:23:14.711Z,90.33
2023-12-11T12:28:16.610Z,91.38
2023-12-11T12:33:19.682Z,92.05
2023-12-11T12:38:22.563Z,92.53
2023-12-11T12:43:25.547Z,92.28
2023-12-11T12:48:30.465Z,92.42
2023-12-11T12:53:32.060Z,92.12
2023-12-11T12:58:33.577Z,92.12
2023-12-11T13:03:35.417Z,91.89
2023-12-11T13:08:44.292Z,92.07
2023-12-11T13:13:58.325Z,92.30
2023-12-11T13:18:59.927Z,92.76
2023-12-11T13:24:01.870Z,92.47
2023-12-11T13:29:04.581Z,92.27
2023-12-11T13:34:06.225Z,92.98
2023-12-11T13:39:09.529Z,92.94
2023-12-11T13:44:12.457Z,93.48
2023-12-11T13:49:14.404Z,92.98
2023-12-11T13:54:16.021Z,92.84
2023-12-11T13:59:17.575Z,93.25
2023-12-11T14:04:19.152Z,93.11
2023-12-11T14:09:21.299Z,92.54
2023-12-11T14:14:22.925Z,92.66
2023-12-11T14:19:24.648Z,93.04
2023-12-11T14:24:27.065Z,92.87
2023-12-11T14:29:28.627Z,93.51
2023-12-11T14:34:30.232Z,92.44
2023-12-11T14:39:32.241Z,92.72
2023-12-11T14:44:35.339Z,91.88
2023-12-11T14:49:36.873Z,92.59
2023-12-11T14:54:38.381Z,92.92
2023-12-11T14:59:40.611Z,92.47
2023-12-11T15:04:42.386Z,92.66
2023-12-11T15:09:43.882Z,92.68
2023-12-11T15:14:45.650Z,92.04
2023-12-11T15:19:47.325Z,92.06
2023-12-11T15:24:48.980Z,92.45
2023-12-11T15:29:51.839Z,92.44
2023-12-11T15:34:53.406Z,91.91
2023-12-11T15:39:54.981Z,91.92
2023-12-11T15:44:56.513Z,92.31
2023-12-11T15:49:58.332Z,91.44
2023-12-11T15:55:00.052Z,91.73
2023-12-11T16:00:01.616Z,92.12
2023-12-11T16:05:04.547Z,91.34
2023-12-11T16:10:07.300Z,92.02
2023-12-11T16:15:09.334Z,91.59
2023-12-11T16:20:11.375Z,91.91
2023-12-11T16:25:12.990Z,92.09
2023-12-11T16:30:14.771Z,92.35
2023-12-11T16:35:16.253Z,92.22
2023-12-11T16:40:18.465Z,92.25
2023-12-11T16:45:21.037Z,92.69
2023-12-11T16:50:23.106Z,92.52
2023-12-11T16:55:24.704Z,92.70
2023-12-11T17:00:26.202Z,92.52
2023-12-11T17:05:27.867Z,92.74
2023-12-11T17:10:29.630Z,92.13
2023-12-11T17:15:31.124Z,92.02
2023-12-11T17:20:32.601Z,91.77
2023-12-11T17:25:34.163Z,92.10
2023-12-11T17:30:35.742Z,92.41
2023-12-11T17:35:37.509Z,91.82
2023-12-11T17:40:38.987Z,91.37
2023-12-11T17:45:40.486Z,91.05
2023-12-11T17:50:41.991Z,89.82
2023-12-11T17:55:44.249Z,89.72
2023-12-11T18:00:45.998Z,89.34
2023-12-11T18:05:47.590Z,89.34
2023-12-11T18:10:49.188Z,89.96
2023-12-11T18:15:50.843Z,89.66
2023-12-11T18:20:52.356Z,89.62
2023-12-11T18:25:54.083Z,90.42
2023-12-11T18:30:57.903Z,89.68
2023-12-11T18:35:59.604Z,89.86
2023-12-11T18:41:01.118Z,90.46
2023-12-11T18:46:03.226Z,90.03
2023-12-11T18:51:05.001Z,89.57
2023-12-11T18:56:06.854Z,88.91
2023-12-11T19:01:11.170Z,88.89
2023-12-11T19:06:12.773Z,87.76
2023-12-11T19:11:15.296Z,88.22
2023-12-11T19:16:17.037Z,87.65
2023-12-11T19:21:18.552Z,87.66
2023-12-11T19:26:20.050Z,88.39
2023-12-11T19:31:21.682Z,87.66
2023-12-11T19:36:25.969Z,86.93
2023-12-11T19:41:27.635Z,87.21
2023-12-11T19:46:29.258Z,87.33
2023-12-11T19:51:30.778Z,87.29
2023-12-11T19:56:32.369Z,87.57
2023-12-11T20:01:36.484Z,87.10
2023-12-11T20:06:39.795Z,87.83
2023-12-11T20:11:42.219Z,87.97
2023-12-11T20:16:44.122Z,88.35
2023-12-11T20:21:45.649Z,88.12
2023-12-11T20:26:47.214Z,88.28
2023-12-11T20:31:49.300Z,88.23
2023-12-11T20:36:51.793Z,88.24
2023-12-11T20:41:53.480Z,88.13
2023-12-11T20:46:54.938Z,88.75
2023-12-11T20:51:56.612Z,87.68
2023-12-11T20:56:58.321Z,87.91
2023-12-11T21:02:01.163Z,86.90
2023-12-11T21:07:02.621Z,88.53
2023-12-11T21:12:04.511Z,87.27
2023-12-11T21:17:06.135Z,86.78
2023-12-11T21:22:07.601Z,86.27
2023-12-11T21:27:09.241Z,86.50
2023-12-11T21:32:11.091Z,87.02
2023-12-11T21:37:12.640Z,86.85
2023-12-11T21:42:14.187Z,86.26
2023-12-11T21:47:15.894Z,86.85
2023-12-11T21:52:17.720Z,87.16
2023-12-11T21:57:19.448Z,87.94
2023-12-11T22:02:21.112Z,87.69
2023-12-11T22:07:23.848Z,87.86
2023-12-11T22:12:25.460Z,87.18
2023-12-11T22:17:27.060Z,87.64
2023-12-11T22:22:28.759Z,87.71
2023-12-11T22:27:30.643Z,87.49
2023-12-11T22:32:32.265Z,87.62
2023-12-11T22:37:34.603Z,87.46
2023-12-11T22:42:36.358Z,87.69
2023-12-11T22:47:37.998Z,87.51
2023-12-11T22:52:39.592Z,86.53
2023-12-11T22:57:41.437Z,86.06
2023-12-11T23:02:42.930Z,85.89
2023-12-11T23:07:44.443Z,85.39
2023-12-11T23:12:45.912Z,85.51
2023-12-11T23:17:48.523Z,85.75
2023-12-11T23:22:50.203Z,86.25
2023-12-11T23:27:51.706Z,86.57
2023-12-11T23:32:53.254Z,86.90
2023-12-11T23:37:54.861Z,86.24
2023-12-11T23:42:56.365Z,86.21
2023-12-11T23:47:57.898Z,86.89
2023-12-11T23:52:59.397Z,87.55
2023-12-11T23:58:01.218Z,87.65
